Time;durP1;ratioP1;P1;durP2;ratioP2;P2;SDS_P1;SDS_P2;PMS_P1;PMS_P2;Temp;Humidity;BMP_temperature;BMP_pressure;BME280_temperature;BME280_humidity;BME280_pressure;Samples;Min_cycle;Max_cycle;Signal;HPM_P1;HPM_P2
2021/08/27 00:00:34;;;;;;;10.68;1.55;;;14.70;99.90;;;;;;5094599;27;20446;-68
2021/08/27 00:03:00;;;;;;;8.48;1.27;;;14.70;99.90;;;;;;5095303;28;20032;-68
2021/08/27 00:05:25;;;;;;;8.85;1.50;;;14.70;99.90;;;;;;5095780;28;20052;-68
2021/08/27 00:07:51;;;;;;;12.98;1.83;;;14.70;99.90;;;;;;5093766;28;20374;-68
2021/08/27 00:10:16;;;;;;;8.88;1.60;;;14.70;99.90;;;;;;5126327;27;20067;-69
2021/08/27 00:12:42;;;;;;;7.50;1.42;;;14.70;99.90;;;;;;5098485;28;20050;-68
2021/08/27 00:15:09;;;;;;;11.50;1.77;;;14.70;99.90;;;;;;5098272;28;20039;-68
2021/08/27 00:17:35;;;;;;;7.30;1.70;;;14.70;99.90;;;;;;5097073;28;20036;-68
2021/08/27 00:20:01;;;;;;;12.98;2.33;;;14.70;99.90;;;;;;5094785;28;20081;-68
2021/08/27 00:22:28;;;;;;;6.53;1.10;;;14.70;99.90;;;;;;5097136;28;20090;-68
2021/08/27 00:24:53;;;;;;;5.90;1.45;;;14.70;99.90;;;;;;5096739;27;20156;-68
2021/08/27 00:27:19;;;;;;;5.47;1.17;;;14.70;99.90;;;;;;5095455;27;20587;-68
2021/08/27 00:29:45;;;;;;;6.82;1.60;;;14.70;99.90;;;;;;5093253;28;20639;-68
2021/08/27 00:32:11;;;;;;;8.32;1.60;;;14.70;99.90;;;;;;5096167;28;20039;-68
2021/08/27 00:34:36;;;;;;;7.70;1.48;;;14.80;99.90;;;;;;5125380;27;20552;-68
2021/08/27 00:37:04;;;;;;;5.55;1.15;;;14.80;99.90;;;;;;5096281;28;20043;-68
2021/08/27 00:39:30;;;;;;;9.57;1.30;;;14.90;99.90;;;;;;5124848;27;20134;-69
2021/08/27 00:41:56;;;;;;;7.45;1.20;;;14.80;99.90;;;;;;5128580;27;20035;-68
2021/08/27 00:44:22;;;;;;;12.65;2.75;;;14.90;99.90;;;;;;5096235;28;20050;-68
2021/08/27 00:46:47;;;;;;;11.40;1.58;;;14.90;99.90;;;;;;5093126;28;20063;-69
2021/08/27 00:49:14;;;;;;;10.48;1.25;;;14.90;99.90;;;;;;5096263;28;20065;-68
2021/08/27 00:51:39;;;;;;;8.50;1.65;;;14.90;99.90;;;;;;5100302;28;20051;-68
2021/08/27 00:54:05;;;;;;;11.27;1.50;;;15.00;99.90;;;;;;5098904;28;20047;-69
2021/08/27 00:56:30;;;;;;;5.43;1.58;;;14.90;99.90;;;;;;5099274;27;20039;-68
2021/08/27 00:58:58;;;;;;;8.32;1.83;;;14.90;99.90;;;;;;5097429;27;20104;-68
2021/08/27 01:01:24;;;;;;;6.70;1.50;;;14.90;99.90;;;;;;5096527;28;20588;-68
2021/08/27 01:03:50;;;;;;;8.13;1.60;;;14.90;99.90;;;;;;5100190;28;20040;-68
2021/08/27 01:06:25;;;;;;;8.68;2.03;;;14.90;99.90;;;;;;5099439;27;20032;-68
2021/08/27 01:08:58;;;;;;;8.57;1.73;;;14.80;99.90;;;;;;5100644;28;20043;-68
2021/08/27 01:11:35;;;;;;;8.25;1.42;;;14.70;99.90;;;;;;5095743;27;20052;-68
2021/08/27 01:14:08;;;;;;;7.88;1.90;;;14.70;99.90;;;;;;5100845;28;20078;-69
2021/08/27 01:16:44;;;;;;;6.45;1.65;;;14.60;99.90;;;;;;5099851;27;20089;-68
2021/08/27 01:19:44;;;;;;;8.02;1.25;;;14.60;99.90;;;;;;5098655;28;20051;-69
2021/08/27 01:22:38;;;;;;;8.63;1.17;;;14.60;99.90;;;;;;5096979;28;20040;-68
2021/08/27 01:25:05;;;;;;;9.55;2.00;;;14.50;99.90;;;;;;5097222;28;20040;-68
2021/08/27 01:27:34;;;;;;;7.72;1.83;;;14.50;99.90;;;;;;5098721;27;20032;-68
2021/08/27 01:30:22;;;;;;;7.50;1.20;;;14.50;99.90;;;;;;5097959;28;20071;-68
2021/08/27 01:32:51;;;;;;;10.13;2.00;;;14.50;99.90;;;;;;5097630;28;20497;-69
2021/08/27 01:35:17;;;;;;;7.88;1.48;;;14.40;99.90;;;;;;5097186;28;20036;-68
2021/08/27 01:37:51;;;;;;;7.25;1.30;;;14.40;99.90;;;;;;5096494;28;20436;-69
2021/08/27 01:40:18;;;;;;;11.90;1.75;;;14.40;99.90;;;;;;5098331;28;20035;-69
2021/08/27 01:42:45;;;;;;;9.15;1.75;;;14.40;99.90;;;;;;5095406;27;20043;-68
2021/08/27 01:45:12;;;;;;;8.10;1.45;;;14.40;99.90;;;;;;5100490;28;20118;-69
2021/08/27 01:47:39;;;;;;;8.00;1.63;;;14.40;99.90;;;;;;5094872;27;20044;-68
2021/08/27 01:50:06;;;;;;;7.75;1.20;;;14.30;99.90;;;;;;5100602;27;20109;-69
2021/08/27 01:52:33;;;;;;;8.18;1.20;;;14.30;99.90;;;;;;5097561;27;20039;-69
2021/08/27 01:55:00;;;;;;;9.68;1.50;;;14.30;99.90;;;;;;5100288;28;20032;-68
2021/08/27 01:57:27;;;;;;;8.13;1.55;;;14.30;99.90;;;;;;5097285;28;20594;-68
2021/08/27 01:59:53;;;;;;;10.68;1.73;;;14.30;99.90;;;;;;5100875;28;20043;-68
2021/08/27 02:02:20;;;;;;;9.85;1.85;;;14.30;99.90;;;;;;5101283;27;20062;-68
2021/08/27 02:04:56;;;;;;;6.78;1.70;;;14.40;99.90;;;;;;5100930;28;20028;-68
2021/08/27 02:07:22;;;;;;;15.20;1.60;;;14.40;99.90;;;;;;5095520;27;20036;-68
2021/08/27 02:09:52;;;;;;;8.43;1.73;;;14.40;99.90;;;;;;5099413;28;20035;-68
2021/08/27 02:12:19;;;;;;;6.63;1.48;;;14.40;99.90;;;;;;5097060;28;20031;-68
2021/08/27 02:14:47;;;;;;;6.50;1.65;;;14.50;99.90;;;;;;5097282;28;20044;-68
2021/08/27 02:17:13;;;;;;;8.57;1.80;;;14.40;99.90;;;;;;5095913;27;20047;-68
2021/08/27 02:19:39;;;;;;;9.05;1.88;;;14.50;99.90;;;;;;5097003;27;20044;-68
2021/08/27 02:22:08;;;;;;;10.45;1.70;;;14.50;99.90;;;;;;5099255;28;20023;-68
2021/08/27 02:24:59;;;;;;;11.45;1.60;;;14.50;99.90;;;;;;5102574;28;20040;-68
2021/08/27 02:27:27;;;;;;;11.02;2.42;;;14.50;99.90;;;;;;5100895;27;20519;-68
2021/08/27 02:29:55;;;;;;;6.28;1.55;;;14.50;99.90;;;;;;5103290;28;20043;-68
2021/08/27 02:32:23;;;;;;;9.57;1.92;;;14.50;99.90;;;;;;5099942;28;20067;-68
2021/08/27 02:34:50;;;;;;;13.82;3.03;;;14.50;99.90;;;;;;5098575;27;20082;-68
2021/08/27 02:37:19;;;;;;;7.57;1.50;;;14.50;99.90;;;;;;5101710;28;20113;-68
2021/08/27 02:39:45;;;;;;;8.60;2.10;;;14.50;99.90;;;;;;5100066;28;20067;-68
2021/08/27 02:42:12;;;;;;;8.48;1.48;;;14.60;99.90;;;;;;5105647;28;20066;-68
2021/08/27 02:44:38;;;;;;;12.48;1.58;;;14.50;99.90;;;;;;5102077;28;20051;-68
2021/08/27 02:47:04;;;;;;;7.97;1.55;;;14.60;99.90;;;;;;5102088;27;20043;-68
2021/08/27 02:49:30;;;;;;;10.93;2.25;;;14.60;99.90;;;;;;5100657;28;20065;-68
2021/08/27 02:52:09;;;;;;;7.63;1.42;;;14.60;99.90;;;;;;5104196;28;20036;-68
2021/08/27 02:54:53;;;;;;;6.78;1.23;;;14.60;99.90;;;;;;5107449;28;20112;-68
2021/08/27 02:57:21;;;;;;;9.93;1.30;;;14.60;99.90;;;;;;5084439;28;20090;-68
2021/08/27 02:59:48;;;;;;;5.85;1.80;;;14.60;99.90;;;;;;5102102;28;20109;-68
2021/08/27 03:02:16;;;;;;;7.85;1.42;;;14.60;99.90;;;;;;5118465;27;20043;-68
2021/08/27 03:04:53;;;;;;;9.75;2.35;;;14.60;99.90;;;;;;5104646;27;20024;-68
2021/08/27 03:07:22;;;;;;;10.32;2.30;;;14.50;99.90;;;;;;5100038;27;20031;-68
2021/08/27 03:10:23;;;;;;;7.80;1.25;;;14.50;99.90;;;;;;5105346;28;20050;-68
2021/08/27 03:13:01;;;;;;;8.40;1.77;;;14.40;99.90;;;;;;5101334;28;20051;-68
2021/08/27 03:15:56;;;;;;;8.25;1.48;;;14.40;99.90;;;;;;5100758;28;20035;-68
2021/08/27 03:18:30;;;;;;;5.40;1.20;;;14.40;99.90;;;;;;5103130;27;20047;-68
2021/08/27 03:21:24;;;;;;;8.90;1.58;;;14.40;99.90;;;;;;5100613;27;20478;-68
2021/08/27 03:23:51;;;;;;;5.80;1.30;;;14.40;99.90;;;;;;5099119;28;20051;-68
2021/08/27 03:26:21;;;;;;;5.40;1.08;;;14.40;99.90;;;;;;5101991;27;20066;-68
2021/08/27 03:28:52;;;;;;;7.28;1.05;;;14.50;99.90;;;;;;5099558;28;20043;-68
2021/08/27 03:31:18;;;;;;;9.38;1.13;;;14.40;99.90;;;;;;5100322;27;20071;-68
2021/08/27 03:33:45;;;;;;;4.82;0.75;;;14.50;99.90;;;;;;5102062;28;20071;-68
2021/08/27 03:36:11;;;;;;;5.35;0.75;;;14.50;99.90;;;;;;5101192;28;20043;-68
2021/08/27 03:38:38;;;;;;;7.25;1.05;;;14.50;99.90;;;;;;5095982;28;20035;-68
2021/08/27 03:41:04;;;;;;;5.45;0.68;;;14.50;99.90;;;;;;5103878;28;20051;-68
2021/08/27 03:43:31;;;;;;;4.18;1.10;;;14.50;99.90;;;;;;5102878;28;20028;-68
2021/08/27 03:46:00;;;;;;;3.20;0.95;;;14.50;99.90;;;;;;5099770;28;20542;-68
2021/08/27 03:48:27;;;;;;;4.90;0.82;;;14.50;99.90;;;;;;5080864;28;20044;-68
2021/08/27 03:50:54;;;;;;;4.95;0.85;;;14.50;99.90;;;;;;5130178;27;20043;-68
2021/08/27 03:53:21;;;;;;;4.97;1.05;;;14.50;99.90;;;;;;5103720;28;20047;-68
2021/08/27 03:55:52;;;;;;;4.20;1.05;;;14.50;99.90;;;;;;5105493;28;20051;-68
2021/08/27 03:58:23;;;;;;;8.07;1.35;;;14.50;99.90;;;;;;5098239;27;20044;-68
2021/08/27 04:00:50;;;;;;;6.32;1.13;;;14.50;99.90;;;;;;5131211;27;20043;-68
2021/08/27 04:03:19;;;;;;;5.55;1.20;;;14.50;99.90;;;;;;5099100;28;20062;-68
2021/08/27 04:05:59;;;;;;;7.57;1.10;;;14.50;99.90;;;;;;5100820;28;20097;-67
2021/08/27 04:08:25;;;;;;;7.13;1.23;;;14.50;99.90;;;;;;5097440;27;20039;-68
2021/08/27 04:10:51;;;;;;;4.40;1.13;;;14.50;99.90;;;;;;5101601;28;20040;-68
2021/08/27 04:13:16;;;;;;;9.40;1.70;;;14.50;99.90;;;;;;5102017;27;20096;-68
2021/08/27 04:15:42;;;;;;;6.20;1.75;;;14.50;99.90;;;;;;5098434;28;20032;-68
2021/08/27 04:18:07;;;;;;;6.97;1.63;;;14.50;99.90;;;;;;5101562;28;20067;-68
2021/08/27 04:20:33;;;;;;;7.22;1.48;;;14.50;99.90;;;;;;5099227;28;20452;-68
2021/08/27 04:22:59;;;;;;;6.82;1.65;;;14.40;99.90;;;;;;5098208;28;20031;-68
2021/08/27 04:25:24;;;;;;;5.22;1.17;;;14.40;99.90;;;;;;5101870;28;20039;-68
2021/08/27 04:27:50;;;;;;;8.70;1.42;;;14.40;99.90;;;;;;5101662;28;20044;-68
2021/08/27 04:30:16;;;;;;;8.25;1.38;;;14.40;99.90;;;;;;5100758;27;20115;-68
2021/08/27 04:32:41;;;;;;;5.53;1.80;;;14.40;99.90;;;;;;5105139;27;20529;-68
2021/08/27 04:35:07;;;;;;;8.00;1.38;;;14.40;99.90;;;;;;5113523;27;20040;-68
2021/08/27 04:37:33;;;;;;;7.63;1.52;;;14.40;99.90;;;;;;5094620;28;20077;-68
2021/08/27 04:39:59;;;;;;;9.13;2.08;;;14.40;99.90;;;;;;5095922;28;20031;-68
2021/08/27 04:42:24;;;;;;;5.75;1.25;;;14.40;99.90;;;;;;5093627;28;20043;-68
2021/08/27 04:44:50;;;;;;;5.38;1.60;;;14.40;99.90;;;;;;5098166;28;20035;-68
2021/08/27 04:47:15;;;;;;;6.65;2.10;;;14.40;99.90;;;;;;5099759;28;20141;-68
2021/08/27 04:49:41;;;;;;;11.77;2.65;;;14.40;99.90;;;;;;5095786;28;20043;-68
2021/08/27 04:52:07;;;;;;;5.53;1.17;;;14.40;99.90;;;;;;5102145;28;20064;-68
2021/08/27 04:54:33;;;;;;;7.40;1.42;;;14.40;99.90;;;;;;5097389;28;20031;-68
2021/08/27 04:56:59;;;;;;;8.43;1.67;;;14.40;99.90;;;;;;5103555;28;20039;-68
2021/08/27 04:59:25;;;;;;;8.52;1.33;;;14.40;99.90;;;;;;5096828;28;20710;-68
2021/08/27 05:01:50;;;;;;;6.95;1.40;;;14.50;99.90;;;;;;5100030;28;20032;-68
2021/08/27 05:04:16;;;;;;;11.05;1.55;;;14.40;99.90;;;;;;5097952;28;20131;-68
2021/08/27 05:06:41;;;;;;;5.95;1.00;;;14.40;99.90;;;;;;5098484;28;20063;-68
2021/08/27 05:09:07;;;;;;;8.10;1.40;;;14.40;99.90;;;;;;5101193;28;20096;-68
2021/08/27 05:11:33;;;;;;;9.80;1.63;;;14.40;99.90;;;;;;5092407;28;20414;-68
2021/08/27 05:13:58;;;;;;;7.32;1.20;;;14.40;99.90;;;;;;5093664;28;20035;-68
2021/08/27 05:16:24;;;;;;;5.82;1.38;;;14.40;99.90;;;;;;5093774;28;20047;-68
2021/08/27 05:18:49;;;;;;;5.20;1.08;;;14.40;99.90;;;;;;5093552;28;20482;-68
2021/08/27 05:21:16;;;;;;;8.10;1.55;;;14.40;99.90;;;;;;5092569;28;20087;-68
2021/08/27 05:23:42;;;;;;;9.18;1.40;;;14.40;99.90;;;;;;5088910;28;20044;-68
2021/08/27 05:26:07;;;;;;;6.57;1.23;;;14.40;99.90;;;;;;5092639;28;20054;-68
2021/08/27 05:28:33;;;;;;;5.43;0.88;;;14.30;99.90;;;;;;5092402;28;20048;-68
2021/08/27 05:30:58;;;;;;;4.93;1.17;;;14.40;99.90;;;;;;5123946;27;20044;-68
2021/08/27 05:33:24;;;;;;;5.40;1.23;;;14.50;99.90;;;;;;5093017;28;20032;-68
2021/08/27 05:35:50;;;;;;;8.40;1.20;;;14.50;99.90;;;;;;5120666;27;20040;-68
2021/08/27 05:38:15;;;;;;;10.18;1.30;;;14.60;99.90;;;;;;5126623;27;20466;-68
2021/08/27 05:40:41;;;;;;;9.15;2.08;;;14.60;99.90;;;;;;5102913;27;20035;-68
2021/08/27 05:43:07;;;;;;;5.05;1.25;;;14.50;99.90;;;;;;5098074;27;20560;-68
2021/08/27 05:45:32;;;;;;;5.45;1.25;;;14.50;99.90;;;;;;5100792;27;20032;-68
2021/08/27 05:47:58;;;;;;;8.68;1.77;;;14.50;99.90;;;;;;5103691;27;20092;-68
2021/08/27 05:50:24;;;;;;;11.60;1.77;;;14.50;99.90;;;;;;5099255;28;20093;-68
2021/08/27 05:52:50;;;;;;;9.00;1.50;;;14.50;99.90;;;;;;5097881;28;20047;-68
2021/08/27 05:55:15;;;;;;;10.90;1.98;;;14.50;99.90;;;;;;5099603;27;20122;-68
2021/08/27 05:57:41;;;;;;;9.98;1.25;;;14.50;99.90;;;;;;5097510;28;20059;-69
2021/08/27 06:00:08;;;;;;;8.90;2.60;;;14.60;99.90;;;;;;5095861;28;20044;-68
2021/08/27 06:02:33;;;;;;;8.18;1.60;;;14.80;99.90;;;;;;5092909;28;20144;-68
2021/08/27 06:04:59;;;;;;;7.22;1.83;;;15.10;99.90;;;;;;5096735;28;20506;-68
2021/08/27 06:07:26;;;;;;;14.38;2.17;;;15.20;99.90;;;;;;5093860;28;20123;-68
2021/08/27 06:09:52;;;;;;;7.72;1.70;;;15.30;99.90;;;;;;5101462;27;20040;-68
2021/08/27 06:12:18;;;;;;;6.47;1.55;;;15.40;99.90;;;;;;5098033;27;20381;-68
2021/08/27 06:14:44;;;;;;;8.85;1.83;;;15.50;99.90;;;;;;5097191;28;20100;-68
2021/08/27 06:17:09;;;;;;;7.95;1.38;;;15.50;99.90;;;;;;5102259;27;20390;-68
2021/08/27 06:19:35;;;;;;;12.88;2.25;;;15.40;99.90;;;;;;5097429;27;20040;-68
2021/08/27 06:22:01;;;;;;;16.13;2.28;;;15.40;99.90;;;;;;5095956;28;20406;-68
2021/08/27 06:24:27;;;;;;;11.40;2.65;;;15.40;99.90;;;;;;5099723;28;20047;-68
2021/08/27 06:26:52;;;;;;;8.77;1.50;;;15.40;99.90;;;;;;5098234;28;20047;-68
2021/08/27 06:29:18;;;;;;;10.43;1.85;;;15.30;99.90;;;;;;5096208;28;20080;-68
2021/08/27 06:31:43;;;;;;;11.68;2.53;;;15.30;99.90;;;;;;5095462;27;20042;-68
2021/08/27 06:34:09;;;;;;;11.48;1.80;;;15.30;99.90;;;;;;5096834;28;20084;-68
2021/08/27 06:36:34;;;;;;;12.75;1.58;;;15.30;99.90;;;;;;5093175;28;21463;-68
2021/08/27 06:39:00;;;;;;;9.45;2.42;;;15.30;99.90;;;;;;5096532;27;20611;-68
2021/08/27 06:41:26;;;;;;;10.25;2.53;;;15.30;99.90;;;;;;5097649;28;20478;-68
2021/08/27 06:43:51;;;;;;;14.55;3.35;;;15.40;99.90;;;;;;5098582;28;20043;-68
2021/08/27 06:46:23;;;;;;;13.48;2.05;;;15.40;99.90;;;;;;5098885;27;20116;-68
2021/08/27 06:48:49;;;;;;;5.13;1.42;;;15.50;99.90;;;;;;5096309;28;20497;-68
2021/08/27 06:51:15;;;;;;;12.20;2.40;;;16.10;99.90;;;;;;5094682;28;20036;-68
2021/08/27 06:53:41;;;;;;;13.20;1.98;;;17.70;99.90;;;;;;5095952;28;20163;-69
2021/08/27 06:56:07;;;;;;;12.52;2.40;;;18.60;99.90;;;;;;5099625;28;20168;-69
2021/08/27 06:58:32;;;;;;;11.93;2.58;;;18.60;99.90;;;;;;5127063;27;20088;-69
2021/08/27 07:00:58;;;;;;;5.82;1.75;;;18.20;99.90;;;;;;5095191;28;20538;-68
2021/08/27 07:03:24;;;;;;;9.35;1.70;;;17.90;99.90;;;;;;5098192;28;20046;-68
2021/08/27 07:05:50;;;;;;;9.95;1.70;;;17.70;99.90;;;;;;5096876;28;20401;-68
2021/08/27 07:08:16;;;;;;;11.43;2.30;;;17.50;99.90;;;;;;5092160;28;20047;-68
2021/08/27 07:10:42;;;;;;;9.70;1.98;;;17.30;99.90;;;;;;5096382;27;20043;-68
2021/08/27 07:13:09;;;;;;;15.30;2.35;;;17.20;99.90;;;;;;5093158;27;20040;-68
2021/08/27 07:15:36;;;;;;;9.90;2.30;;;17.00;99.90;;;;;;5095955;27;20032;-68
2021/08/27 07:18:02;;;;;;;7.53;1.50;;;16.90;99.90;;;;;;5093329;28;20051;-68
2021/08/27 07:20:28;;;;;;;7.85;2.03;;;16.90;99.90;;;;;;5086581;27;20077;-68
2021/08/27 07:22:54;;;;;;;10.85;2.35;;;17.10;99.90;;;;;;5086172;27;20036;-68
2021/08/27 07:25:20;;;;;;;15.13;2.20;;;17.10;99.90;;;;;;5116372;27;20040;-68
2021/08/27 07:27:48;;;;;;;9.07;1.83;;;17.20;99.90;;;;;;5091957;28;20035;-68
2021/08/27 07:30:14;;;;;;;7.47;1.63;;;17.20;99.90;;;;;;5084612;28;20561;-68
2021/08/27 07:32:40;;;;;;;8.73;1.95;;;17.30;99.90;;;;;;5084828;28;20027;-68
2021/08/27 07:35:06;;;;;;;9.90;2.53;;;17.40;99.90;;;;;;5086004;27;20116;-68
2021/08/27 07:37:32;;;;;;;13.18;1.83;;;17.60;99.90;;;;;;5084316;27;20068;-68
2021/08/27 07:39:59;;;;;;;10.80;2.60;;;18.00;99.90;;;;;;5085177;28;20138;-68
2021/08/27 07:42:24;;;;;;;16.70;2.20;;;18.10;99.90;;;;;;5085018;28;20122;-68
2021/08/27 07:44:50;;;;;;;7.13;1.63;;;18.10;99.90;;;;;;5082295;28;20410;-68
2021/08/27 07:47:16;;;;;;;14.48;2.05;;;18.20;99.90;;;;;;5085425;28;20117;-69
2021/08/27 07:49:41;;;;;;;10.68;2.03;;;18.10;99.90;;;;;;5084614;28;20194;-69
2021/08/27 07:52:07;;;;;;;8.15;1.95;;;18.10;99.90;;;;;;5087473;27;20040;-69
2021/08/27 07:54:33;;;;;;;12.10;1.73;;;18.00;99.90;;;;;;5084210;28;20044;-69
2021/08/27 07:56:59;;;;;;;11.93;2.03;;;17.90;99.90;;;;;;5083641;28;20044;-69
2021/08/27 07:59:25;;;;;;;11.23;1.60;;;17.90;99.90;;;;;;5081616;28;20061;-68
2021/08/27 08:01:51;;;;;;;14.30;2.03;;;17.80;99.90;;;;;;5085150;27;20044;-68
2021/08/27 08:04:16;;;;;;;7.22;0.98;;;17.70;99.90;;;;;;5083627;28;20036;-68
2021/08/27 08:06:42;;;;;;;7.63;1.20;;;17.50;99.90;;;;;;5114948;27;20570;-68
2021/08/27 08:09:08;;;;;;;4.97;1.30;;;17.50;99.90;;;;;;5086160;27;20092;-68
2021/08/27 08:11:34;;;;;;;6.65;1.13;;;17.40;99.90;;;;;;5082956;28;20089;-68
2021/08/27 08:14:00;;;;;;;6.28;0.80;;;17.30;99.90;;;;;;5088726;28;20101;-68
2021/08/27 08:16:26;;;;;;;7.38;1.50;;;17.30;99.90;;;;;;5082664;28;20530;-68
2021/08/27 08:18:52;;;;;;;6.00;0.85;;;17.20;99.90;;;;;;5084495;28;20036;-68
2021/08/27 08:21:22;;;;;;;4.20;0.95;;;17.30;99.90;;;;;;5085686;28;20040;-68
2021/08/27 08:23:52;;;;;;;4.90;1.25;;;17.40;99.90;;;;;;5081479;28;20036;-68
2021/08/27 08:26:19;;;;;;;5.40;1.05;;;17.60;99.90;;;;;;5081957;27;20474;-68
2021/08/27 08:28:46;;;;;;;4.97;0.70;;;17.80;99.90;;;;;;5084572;28;20039;-68
2021/08/27 08:31:17;;;;;;;5.00;1.05;;;18.00;99.90;;;;;;5084136;28;20060;-68
2021/08/27 08:33:43;;;;;;;5.38;0.95;;;18.30;99.90;;;;;;5084352;28;20599;-68
2021/08/27 08:36:09;;;;;;;3.22;1.00;;;18.60;99.90;;;;;;5082479;28;22060;-68
2021/08/27 08:38:34;;;;;;;6.60;1.02;;;18.60;99.90;;;;;;5083395;27;20051;-68
2021/08/27 08:41:03;;;;;;;6.53;1.20;;;18.70;99.90;;;;;;5115293;27;20444;-68
2021/08/27 08:43:29;;;;;;;3.95;1.02;;;18.70;99.90;;;;;;5081456;28;20076;-69
2021/08/27 08:45:55;;;;;;;7.53;1.48;;;18.80;99.90;;;;;;5083263;28;20039;-69
2021/08/27 08:48:23;;;;;;;4.15;0.82;;;18.80;99.90;;;;;;5083702;28;20036;-69
2021/08/27 08:50:49;;;;;;;6.70;1.35;;;18.80;99.90;;;;;;5085187;28;20498;-68
2021/08/27 08:53:17;;;;;;;22.42;2.50;;;18.60;99.90;;;;;;5083876;28;20794;-69
2021/08/27 08:55:43;;;;;;;8.75;1.60;;;18.50;99.90;;;;;;5085175;28;20127;-68
2021/08/27 08:58:09;;;;;;;5.53;1.02;;;18.70;99.90;;;;;;5084215;28;20765;-69
2021/08/27 09:00:38;;;;;;;7.78;2.55;;;19.00;99.90;;;;;;5084909;28;20043;-69
2021/08/27 09:03:04;;;;;;;7.78;1.00;;;19.40;99.90;;;;;;5081091;28;20044;-69
2021/08/27 09:05:30;;;;;;;6.03;1.65;;;19.60;99.90;;;;;;5081912;28;20062;-69
2021/08/27 09:07:56;;;;;;;5.72;1.10;;;19.70;99.90;;;;;;5080150;28;20696;-69
2021/08/27 09:10:23;;;;;;;10.75;1.77;;;19.90;99.90;;;;;;5113726;27;20040;-69
2021/08/27 09:12:51;;;;;;;7.95;1.40;;;20.30;99.90;;;;;;5086395;28;20036;-69
2021/08/27 09:15:20;;;;;;;8.02;1.83;;;20.50;99.90;;;;;;5092434;27;20063;-69
2021/08/27 09:17:50;;;;;;;8.93;2.35;;;20.50;99.90;;;;;;5086807;27;21399;-69
2021/08/27 09:20:21;;;;;;;7.13;1.67;;;20.40;99.90;;;;;;5086865;28;20044;-69
2021/08/27 09:22:55;;;;;;;10.07;1.77;;;20.20;99.90;;;;;;5086432;28;20409;-69
2021/08/27 09:25:23;;;;;;;11.20;2.45;;;19.90;99.90;;;;;;5088096;27;20044;-69
2021/08/27 09:28:00;;;;;;;12.55;2.15;;;19.70;99.90;;;;;;5076999;28;20044;-69
2021/08/27 09:30:27;;;;;;;7.90;1.52;;;19.50;99.90;;;;;;5085311;28;20043;-69
2021/08/27 09:32:54;;;;;;;6.95;2.15;;;19.40;99.90;;;;;;5086963;27;20136;-69
2021/08/27 09:35:23;;;;;;;8.75;2.35;;;19.30;99.90;;;;;;5086425;28;20482;-69
2021/08/27 09:37:51;;;;;;;6.32;1.73;;;19.30;99.90;;;;;;5086449;27;20044;-69
2021/08/27 09:40:28;;;;;;;11.35;2.20;;;19.40;99.90;;;;;;5085930;28;20047;-69
2021/08/27 09:42:56;;;;;;;12.48;2.65;;;19.40;99.90;;;;;;5085547;28;20059;-69
2021/08/27 09:45:37;;;;;;;5.43;1.60;;;19.50;99.90;;;;;;5086060;27;20054;-69
2021/08/27 09:48:13;;;;;;;9.02;1.83;;;20.00;99.90;;;;;;5085120;27;20055;-69
2021/08/27 09:50:47;;;;;;;7.82;1.90;;;20.40;99.90;;;;;;5088689;27;20055;-69
2021/08/27 09:53:14;;;;;;;7.80;1.80;;;20.70;99.90;;;;;;5086160;28;20024;-70
2021/08/27 09:56:01;;;;;;;9.98;1.88;;;20.80;99.90;;;;;;5101840;27;20040;-69
2021/08/27 09:58:27;;;;;;;7.63;1.80;;;20.90;99.90;;;;;;5087827;27;20062;-69
2021/08/27 10:01:07;;;;;;;6.97;2.00;;;20.80;99.90;;;;;;5087014;27;20055;-69
2021/08/27 10:03:33;;;;;;;10.70;1.65;;;20.90;99.90;;;;;;5088224;27;20078;-69
2021/08/27 10:06:02;;;;;;;8.68;1.73;;;21.10;99.90;;;;;;5085604;28;20082;-69
2021/08/27 10:08:29;;;;;;;12.55;2.35;;;21.30;99.90;;;;;;5086156;27;20051;-69
2021/08/27 10:10:57;;;;;;;8.82;2.05;;;21.30;99.90;;;;;;5084894;27;20096;-69
2021/08/27 10:13:24;;;;;;;9.93;2.25;;;21.10;99.90;;;;;;5088427;27;20048;-70
2021/08/27 10:15:52;;;;;;;8.23;2.22;;;20.80;99.90;;;;;;5085308;27;20044;-69
2021/08/27 10:18:18;;;;;;;9.40;2.00;;;20.80;99.90;;;;;;5083322;27;20056;-69
2021/08/27 10:20:46;;;;;;;5.78;2.08;;;20.80;99.90;;;;;;5085468;28;20094;-69
2021/08/27 10:23:18;;;;;;;6.05;2.05;;;20.70;99.90;;;;;;5086519;27;20056;-70
2021/08/27 10:25:45;;;;;;;6.00;1.75;;;20.60;99.90;;;;;;5087607;27;20039;-69
2021/08/27 10:28:12;;;;;;;7.15;1.98;;;20.40;99.90;;;;;;5092901;27;20426;-69
2021/08/27 10:30:52;;;;;;;6.72;1.73;;;20.20;99.90;;;;;;5095069;27;20673;-69
2021/08/27 10:33:39;;;;;;;12.05;2.20;;;20.00;99.90;;;;;;5081981;27;20844;-69
2021/08/27 10:36:22;;;;;;;7.65;1.70;;;19.90;99.90;;;;;;5092046;28;20048;-68
2021/08/27 10:38:51;;;;;;;9.15;2.85;;;19.90;99.90;;;;;;5085072;27;20105;-68
2021/08/27 10:41:32;;;;;;;6.93;1.75;;;20.00;99.90;;;;;;5104513;27;20036;-69
2021/08/27 10:44:04;;;;;;;5.50;1.50;;;20.10;99.90;;;;;;5087118;28;20090;-69
2021/08/27 10:46:47;;;;;;;9.38;1.55;;;20.20;99.90;;;;;;5086696;27;20074;-69
2021/08/27 10:49:45;;;;;;;4.68;1.60;;;20.20;99.90;;;;;;5086358;27;20056;-68
2021/08/27 10:52:24;;;;;;;5.70;1.35;;;20.20;99.90;;;;;;5068547;28;20139;-69
2021/08/27 10:55:10;;;;;;;6.82;2.15;;;20.30;99.90;;;;;;5088142;27;20501;-69
2021/08/27 10:57:48;;;;;;;5.70;1.70;;;20.20;99.90;;;;;;5119292;27;20044;-68
2021/08/27 11:00:29;;;;;;;6.00;1.30;;;19.90;99.90;;;;;;5118436;27;20054;-68
2021/08/27 11:03:01;;;;;;;5.88;1.05;;;19.60;99.90;;;;;;5081303;28;20335;-68
2021/08/27 11:05:47;;;;;;;5.90;1.27;;;19.40;99.90;;;;;;5082621;28;20076;-68
2021/08/27 11:08:15;;;;;;;7.05;1.45;;;19.30;99.90;;;;;;5085591;28;20055;-68
2021/08/27 11:11:10;;;;;;;7.90;1.50;;;19.20;99.90;;;;;;5083948;27;20054;-68
2021/08/27 11:13:37;;;;;;;7.97;1.48;;;19.50;99.90;;;;;;5117533;27;20052;-68
2021/08/27 11:16:21;;;;;;;6.75;1.60;;;19.80;99.90;;;;;;5082313;27;20505;-68
2021/08/27 11:18:51;;;;;;;4.47;1.02;;;20.00;99.90;;;;;;5117128;27;20074;-68
2021/08/27 11:21:36;;;;;;;10.93;0.95;;;20.20;99.90;;;;;;5089548;27;20051;-68
2021/08/27 11:24:31;;;;;;;7.88;1.80;;;20.30;99.90;;;;;;5091042;28;20084;-69
2021/08/27 11:27:05;;;;;;;5.95;1.30;;;20.60;99.90;;;;;;5069730;28;20112;-68
2021/08/27 11:29:40;;;;;;;7.10;1.55;;;20.80;99.90;;;;;;5085712;28;20059;-69
2021/08/27 11:32:10;;;;;;;;;;;20.90;99.90;;;;;;5085489;27;20036;-68
2021/08/27 11:34:56;;;;;;;8.63;1.85;;;21.00;99.90;;;;;;5116879;27;19927;-68
2021/08/27 11:37:22;;;;;;;;;;;21.10;99.90;;;;;;5113519;27;20054;-68
2021/08/27 11:39:49;;;;;;;7.22;1.65;;;21.10;99.90;;;;;;5083176;27;20030;-68
2021/08/27 11:42:19;;;;;;;6.43;2.03;;;20.90;99.90;;;;;;5080616;27;20052;-68
2021/08/27 11:44:54;;;;;;;6.75;1.38;;;20.30;99.90;;;;;;5063800;28;20071;-68
2021/08/27 11:47:21;;;;;;;9.57;3.00;;;20.00;99.90;;;;;;5084393;27;20043;-68
2021/08/27 11:49:56;;;;;;;11.00;2.22;;;19.60;99.90;;;;;;5082547;28;20113;-68
2021/08/27 11:52:29;;;;;;;10.88;1.83;;;19.50;99.90;;;;;;5084652;27;20146;-68
2021/08/27 11:55:07;;;;;;;8.48;2.40;;;19.40;99.90;;;;;;5086345;27;20576;-69
2021/08/27 11:57:34;;;;;;;12.68;1.60;;;19.50;99.90;;;;;;5082403;28;20087;-68
2021/08/27 12:00:11;;;;;;;7.70;2.33;;;19.50;99.90;;;;;;5083013;27;20067;-69
2021/08/27 12:02:37;;;;;;;8.57;1.90;;;19.50;99.90;;;;;;5082090;27;20534;-68
2021/08/27 12:05:11;;;;;;;8.23;1.30;;;19.50;99.90;;;;;;5084121;28;20059;-68
2021/08/27 12:07:51;;;;;;;9.80;1.52;;;19.60;99.90;;;;;;5066925;28;20032;-69
2021/08/27 12:10:17;;;;;;;6.72;1.40;;;19.70;99.90;;;;;;5099795;27;20568;-68
2021/08/27 12:12:45;;;;;;;8.18;2.60;;;19.80;99.90;;;;;;5116057;27;20047;-69
2021/08/27 12:15:17;;;;;;;11.00;2.67;;;19.80;99.90;;;;;;5083036;28;20055;-69
2021/08/27 12:18:07;;;;;;;9.55;1.90;;;20.00;99.90;;;;;;5082078;28;20051;-69
2021/08/27 12:20:54;;;;;;;9.60;2.20;;;20.00;99.90;;;;;;5085182;27;22047;-69
2021/08/27 12:23:22;;;;;;;10.30;1.55;;;20.10;99.90;;;;;;5081535;28;20119;-68
2021/08/27 12:26:08;;;;;;;9.65;1.58;;;20.20;99.90;;;;;;5099495;27;20458;-68
2021/08/27 12:28:39;;;;;;;8.80;1.85;;;20.20;99.90;;;;;;5084735;28;20088;-69
2021/08/27 12:31:06;;;;;;;7.43;1.73;;;20.10;99.90;;;;;;5083387;27;20044;-69
2021/08/27 12:33:38;;;;;;;11.48;1.55;;;20.10;99.90;;;;;;5088555;27;20080;-69
2021/08/27 12:36:05;;;;;;;6.28;1.95;;;20.10;99.90;;;;;;5114840;27;20093;-68
2021/08/27 12:38:31;;;;;;;8.73;1.48;;;20.00;99.90;;;;;;5083133;27;20529;-68
2021/08/27 12:41:14;;;;;;;6.60;1.33;;;20.10;99.90;;;;;;5083245;28;20040;-68
2021/08/27 12:43:40;;;;;;;7.75;1.45;;;20.10;99.90;;;;;;5096212;27;20052;-68
2021/08/27 12:46:06;;;;;;;7.80;2.25;;;20.10;99.90;;;;;;5083144;28;21658;-68
2021/08/27 12:48:32;;;;;;;7.97;1.55;;;20.00;99.90;;;;;;5087583;27;20040;-68
2021/08/27 12:51:05;;;;;;;8.80;2.03;;;20.00;99.90;;;;;;5123397;27;20171;-68
2021/08/27 12:53:41;;;;;;;6.50;1.58;;;20.00;99.90;;;;;;5092717;27;20130;-69
2021/08/27 12:56:11;;;;;;;6.72;1.67;;;20.00;99.90;;;;;;5090477;28;20040;-69